Ana Sayfa
METAR-TAF:

METAR-TAF

Havaalanları :

Kristiansand, Norveç

Enlem: 58-12N, Boylam: 008-05E, yükseklik: 1 m

Güncel hava durumu gözlemi

Rapor saat 03:50 UTC de 42 dakika önce yapıldı.
Rüzgar değişken yönden 5 kt
Sıcaklık 4°C
Nem 70%
Basınç 1012 hPa
Görüş mesafesi 10 km veya daha fazla
1500 m altında bulut yok ve kümülonimbus yok

METAR: ENCN 010350Z VRB05KT CAVOK 04/M01 Q1012

Saat: 06:32 (04:32 UTC)

Tahmin

Rapor saat 02:00 UTC de 2 saat ve 32 dakika önce yapıldı.
Ayın 01'si saat 03 UTC'den ayın 01'si saat 12 UTC'ye kadar geçerli Tahmin
Rüzgar batıdan 8 kt
Görüş mesafesi 10 km veya daha fazla
3000 ft yükseklikte az bulutlu

TAF: ENCN 010200Z 0103/0112 28008KT 9999 FEW030

4.000'den fazla havaalanı için hava durumu gözlemleri ve tahminleri (METAR ve TAF raporları).

Kullanılabilir istasyonlar harita üzerinde sarı ve kırmızı noktalarla gösterilir.

İstasyonun adını görmek için fareyi noktanın üzerinde gezdirin.

Sonrasında hava gözlem ve tahminlerini görmek için tıklayın.

Haritayı değiştirmek için: yaklaştırmak için siyah artı işaretli yeşil düğmeye ve uzaklaştırmak için de eksi işaretli düğmeye hızla tıklayın; bitişik haritalar için yeşil okları kullanın.


METAR-TAF: